Athens, Michigan
Current Conditions -  °F | °C
As of 12:54 PM on Monday 24 Nov 2014 (Local Time) from KOEB Reporting Station
Light Rain Light Rain  
Wind Chill: -1°   Ceiling: 1300
Heat Index:   Visibility: 10mi
Dew Point:   Wind: 28mph
Humidity: 88%   Direction: 230°SW
Pressure: 29.25"   Gusts: 44mph
Location:  42.09°N, 85.23°W
Report Text: KOEB 241754Z AUTO 23024G38KT 10SM -RA OVC013 05/03 A2925 RMK AO2 T00500031 10135 20050
Loading
Personal Weather Stations






























Interactive Weather Map New forecast layout! Learn more

10-Day Weather Forecast

Advertisements
Track Severe Weather on mobile